createdAt,value
2018-01-18T00:00:35.923Z,2.60
2018-01-18T00:03:04.304Z,3.57
2018-01-18T00:05:32.668Z,8.37
2018-01-18T00:08:01.045Z,5.10
2018-01-18T00:10:29.437Z,10.43
2018-01-18T00:12:57.816Z,5.67
2018-01-18T00:15:26.211Z,5.27
2018-01-18T00:17:54.675Z,6.10
2018-01-18T00:20:23.042Z,9.33
2018-01-18T00:22:52.199Z,7.40
2018-01-18T00:25:20.558Z,14.00
2018-01-18T00:27:49.326Z,7.20
2018-01-18T00:30:17.686Z,6.53
2018-01-18T00:32:46.035Z,6.57
2018-01-18T00:35:14.404Z,6.53
2018-01-18T00:37:42.751Z,8.70
2018-01-18T00:40:11.521Z,10.77
2018-01-18T00:42:39.890Z,23.10
2018-01-18T00:45:08.253Z,5.67
2018-01-18T00:47:36.608Z,5.53
2018-01-18T00:50:04.966Z,7.30
2018-01-18T00:52:33.349Z,18.00
2018-01-18T00:55:01.697Z,5.43
2018-01-18T00:57:30.056Z,10.90
2018-01-18T00:59:58.437Z,14.57
2018-01-18T01:02:27.691Z,15.40
2018-01-18T01:04:56.070Z,14.33
2018-01-18T01:07:24.440Z,11.57
2018-01-18T01:09:52.805Z,10.93
2018-01-18T01:12:21.580Z,24.23
2018-01-18T01:14:49.954Z,17.23
2018-01-18T01:17:18.318Z,17.30
2018-01-18T01:19:46.704Z,14.83
2018-01-18T01:22:15.118Z,12.27
2018-01-18T01:24:43.485Z,3.67
2018-01-18T01:27:12.246Z,4.30
2018-01-18T01:29:40.619Z,6.50
2018-01-18T01:32:09.814Z,9.03
2018-01-18T01:34:38.194Z,7.37
2018-01-18T01:37:06.561Z,17.10
2018-01-18T01:39:34.924Z,8.43
2018-01-18T01:42:03.278Z,16.07
2018-01-18T01:44:31.659Z,16.47
2018-01-18T01:47:00.031Z,17.00
2018-01-18T01:49:28.400Z,6.63
2018-01-18T01:51:57.171Z,10.50
2018-01-18T01:54:25.534Z,8.10
2018-01-18T01:56:53.931Z,9.77
2018-01-18T01:59:22.293Z,7.83
2018-01-18T02:01:50.644Z,5.00
2018-01-18T02:04:19.149Z,8.93
2018-01-18T02:06:47.537Z,9.77
2018-01-18T02:09:16.027Z,15.67
2018-01-18T02:11:44.392Z,7.63
2018-01-18T02:14:12.748Z,8.10
2018-01-18T02:16:41.151Z,18.57
2018-01-18T02:19:09.506Z,11.60
2018-01-18T02:21:37.899Z,12.83
2018-01-18T02:24:26.351Z,5.03
2018-01-18T02:26:54.724Z,7.03
2018-01-18T02:29:23.083Z,9.30
2018-01-18T02:31:51.471Z,21.13
2018-01-18T02:34:19.861Z,19.60
2018-01-18T02:36:48.202Z,5.70
2018-01-18T02:39:16.915Z,9.57
2018-01-18T02:41:45.274Z,17.00
2018-01-18T02:44:13.653Z,22.53
2018-01-18T02:46:42.079Z,10.70
2018-01-18T02:49:10.453Z,13.20
2018-01-18T02:51:38.891Z,20.70
2018-01-18T02:54:07.313Z,15.23
2018-01-18T02:56:35.666Z,14.50
2018-01-18T02:59:04.174Z,14.07
2018-01-18T03:01:32.541Z,17.53
2018-01-18T03:04:00.929Z,20.57
2018-01-18T03:06:29.279Z,19.80
2018-01-18T03:08:57.641Z,12.13
2018-01-18T03:11:26.007Z,14.57
2018-01-18T03:13:54.381Z,11.40
2018-01-18T03:16:22.751Z,11.53
2018-01-18T03:18:51.529Z,14.00
2018-01-18T03:21:19.880Z,16.77
2018-01-18T03:23:48.269Z,21.40
2018-01-18T03:26:16.628Z,15.20
2018-01-18T03:28:45.024Z,15.10
2018-01-18T03:31:13.376Z,14.37
2018-01-18T03:33:41.739Z,21.60
2018-01-18T03:36:10.172Z,13.53
2018-01-18T03:38:38.519Z,12.90
2018-01-18T03:41:06.913Z,18.13
2018-01-18T03:43:35.268Z,13.00
2018-01-18T03:46:03.679Z,25.17
2018-01-18T03:48:32.039Z,16.60
2018-01-18T03:51:00.416Z,13.93
2018-01-18T03:53:28.806Z,23.27
2018-01-18T03:55:57.202Z,30.80
2018-01-18T03:58:25.564Z,18.63
2018-01-18T04:00:53.931Z,18.77
2018-01-18T04:03:22.290Z,21.30
2018-01-18T04:05:50.714Z,21.37
2018-01-18T04:08:19.079Z,16.93
2018-01-18T04:10:47.455Z,21.50
2018-01-18T04:13:15.821Z,11.00
2018-01-18T04:15:44.180Z,15.33
2018-01-18T04:18:12.604Z,13.03
2018-01-18T04:20:40.978Z,16.10
2018-01-18T04:23:09.353Z,16.50
2018-01-18T04:25:37.730Z,19.63
2018-01-18T04:28:06.096Z,11.23
2018-01-18T04:30:34.527Z,12.90
2018-01-18T04:33:02.860Z,8.80
2018-01-18T04:35:31.231Z,17.77
2018-01-18T04:37:59.623Z,18.60
2018-01-18T04:40:27.991Z,13.73
2018-01-18T04:42:56.399Z,9.23
2018-01-18T04:45:24.754Z,10.03
2018-01-18T04:47:53.138Z,13.40
2018-01-18T04:50:21.540Z,7.07
2018-01-18T04:52:49.898Z,11.50
2018-01-18T04:55:18.276Z,8.67
2018-01-18T04:57:46.642Z,9.40
2018-01-18T05:00:15.036Z,12.60
2018-01-18T05:02:43.423Z,7.83
2018-01-18T05:05:11.783Z,6.00
2018-01-18T05:07:40.181Z,8.90
2018-01-18T05:10:08.543Z,12.07
2018-01-18T05:12:36.924Z,10.70
2018-01-18T05:15:05.289Z,9.97
2018-01-18T05:17:33.689Z,9.90
2018-01-18T05:20:02.174Z,5.23
2018-01-18T05:22:30.548Z,10.70
2018-01-18T05:24:58.960Z,8.87
2018-01-18T05:27:27.741Z,12.60
2018-01-18T05:29:56.095Z,12.17
2018-01-18T05:32:24.479Z,8.90
2018-01-18T05:34:52.848Z,7.70
2018-01-18T05:37:21.204Z,12.77
2018-01-18T05:39:49.604Z,10.50
2018-01-18T05:42:17.976Z,9.57
2018-01-18T05:44:46.356Z,22.80
2018-01-18T05:47:14.724Z,10.83
2018-01-18T05:49:43.089Z,9.07
2018-01-18T05:52:11.462Z,16.80
2018-01-18T05:54:39.884Z,16.23
2018-01-18T05:57:08.354Z,16.33
2018-01-18T05:59:36.731Z,17.37
2018-01-18T06:02:05.124Z,16.20
2018-01-18T06:04:33.486Z,13.80
2018-01-18T06:07:01.871Z,13.73
2018-01-18T06:09:30.347Z,24.40
2018-01-18T06:11:58.798Z,7.97
2018-01-18T06:14:27.160Z,24.20
2018-01-18T06:16:55.592Z,14.53
2018-01-18T06:19:23.975Z,18.67
2018-01-18T06:21:52.432Z,10.20
2018-01-18T06:24:20.846Z,16.90
2018-01-18T06:26:49.203Z,11.50
2018-01-18T06:29:18.250Z,9.70
2018-01-18T06:31:46.994Z,26.33
2018-01-18T06:34:15.397Z,14.20
2018-01-18T06:36:43.855Z,14.53
2018-01-18T06:39:12.240Z,21.10
2018-01-18T06:41:40.621Z,15.20
2018-01-18T06:44:09.000Z,24.63
2018-01-18T06:46:37.389Z,17.40
2018-01-18T06:49:06.184Z,20.60
2018-01-18T06:51:34.948Z,16.37
2018-01-18T06:54:03.315Z,18.33
2018-01-18T06:56:31.714Z,13.10
2018-01-18T06:59:00.145Z,11.90
2018-01-18T07:01:28.512Z,32.70
2018-01-18T07:03:56.887Z,22.53
2018-01-18T07:06:25.656Z,21.30
2018-01-18T07:08:54.155Z,17.13
2018-01-18T07:11:23.014Z,13.53
2018-01-18T07:13:51.379Z,18.87
2018-01-18T07:16:19.743Z,10.63
2018-01-18T07:18:48.144Z,18.07
2018-01-18T07:21:16.508Z,23.27
2018-01-18T07:23:44.900Z,17.53
2018-01-18T07:26:13.260Z,15.73
2018-01-18T07:28:41.616Z,13.70
2018-01-18T07:31:10.028Z,9.87
2018-01-18T07:33:38.396Z,29.27
2018-01-18T07:36:07.095Z,15.50
2018-01-18T07:38:35.480Z,34.10
2018-01-18T07:41:03.851Z,28.53
2018-01-18T07:43:32.250Z,13.70
2018-01-18T07:46:00.729Z,9.70
2018-01-18T07:48:29.182Z,13.63
2018-01-18T07:50:57.560Z,12.47
2018-01-18T07:53:25.952Z,9.00
2018-01-18T07:55:55.170Z,23.37
2018-01-18T07:58:23.543Z,14.60
2018-01-18T08:00:51.965Z,8.40
2018-01-18T08:03:25.789Z,37.60
2018-01-18T08:05:54.176Z,18.57
2018-01-18T08:08:23.154Z,15.17
2018-01-18T08:10:51.533Z,17.60
2018-01-18T08:13:19.896Z,14.17
2018-01-18T08:15:48.248Z,8.60
2018-01-18T08:18:16.714Z,5.50
2018-01-18T08:20:45.064Z,15.50
2018-01-18T08:23:13.504Z,17.37
2018-01-18T08:25:42.368Z,9.90
2018-01-18T08:28:10.729Z,7.90
2018-01-18T08:30:39.100Z,11.20
2018-01-18T08:33:07.473Z,12.83
2018-01-18T08:35:35.845Z,13.43
2018-01-18T08:38:04.259Z,11.67
2018-01-18T08:40:32.632Z,10.47
2018-01-18T08:43:01.016Z,17.80
2018-01-18T08:45:29.390Z,12.03
2018-01-18T08:47:57.752Z,14.73
2018-01-18T08:50:26.128Z,13.23
2018-01-18T08:52:54.524Z,9.70
2018-01-18T08:55:22.909Z,11.13
2018-01-18T08:57:51.385Z,5.73
2018-01-18T09:00:19.748Z,16.47
2018-01-18T09:02:48.127Z,9.60
2018-01-18T09:05:16.500Z,14.47
2018-01-18T09:08:06.133Z,9.57
2018-01-18T09:10:34.895Z,7.93
2018-01-18T09:13:03.300Z,11.93
2018-01-18T09:15:32.061Z,12.97
2018-01-18T09:18:00.415Z,8.60
2018-01-18T09:20:28.775Z,9.63
2018-01-18T09:22:57.140Z,5.97
2018-01-18T09:25:25.520Z,15.77
2018-01-18T09:27:53.868Z,8.03
2018-01-18T09:30:22.629Z,9.43
2018-01-18T09:32:51.040Z,7.77
2018-01-18T09:35:19.394Z,7.03
2018-01-18T09:37:47.890Z,10.87
2018-01-18T09:40:16.639Z,12.83
2018-01-18T09:42:44.995Z,8.23
2018-01-18T09:45:13.417Z,17.13
2018-01-18T09:47:41.764Z,7.37
2018-01-18T09:50:10.168Z,4.40
2018-01-18T09:52:38.646Z,18.27
2018-01-18T09:55:07.008Z,13.80
2018-01-18T09:57:35.444Z,9.83
2018-01-18T10:00:04.208Z,12.23
2018-01-18T10:02:32.592Z,21.00
2018-01-18T10:05:00.953Z,9.57
2018-01-18T10:07:29.348Z,8.60
2018-01-18T10:09:57.714Z,3.50
2018-01-18T10:12:26.084Z,6.57
2018-01-18T10:14:54.580Z,18.27
2018-01-18T10:17:22.944Z,8.00
2018-01-18T10:19:51.328Z,8.90
2018-01-18T10:22:19.708Z,14.70
2018-01-18T10:24:48.121Z,6.73
2018-01-18T10:27:16.893Z,15.23
2018-01-18T10:29:45.268Z,10.23
2018-01-18T10:32:13.632Z,12.67
2018-01-18T10:34:42.014Z,7.50
2018-01-18T10:37:10.383Z,10.40
2018-01-18T10:39:38.777Z,4.73
2018-01-18T10:42:07.144Z,7.27
2018-01-18T10:44:35.618Z,7.10
2018-01-18T10:47:04.394Z,5.43
2018-01-18T10:49:32.759Z,5.63
2018-01-18T10:52:01.131Z,5.03
2018-01-18T10:54:29.488Z,5.67
2018-01-18T10:56:58.352Z,4.80
2018-01-18T10:59:26.826Z,13.43
2018-01-18T11:01:55.197Z,13.93
2018-01-18T11:04:23.580Z,4.90
2018-01-18T11:06:51.943Z,10.93
2018-01-18T11:09:20.297Z,13.73
2018-01-18T11:11:48.663Z,5.03
2018-01-18T11:14:17.044Z,5.67
2018-01-18T11:16:46.368Z,6.00
2018-01-18T11:19:14.771Z,14.07
2018-01-18T11:21:43.300Z,4.90
2018-01-18T11:24:11.644Z,6.80
2018-01-18T11:26:40.009Z,5.20
2018-01-18T11:29:08.388Z,6.70
2018-01-18T11:31:36.768Z,8.60
2018-01-18T11:34:05.116Z,4.43
2018-01-18T11:36:33.495Z,4.00
2018-01-18T11:39:01.852Z,5.93
2018-01-18T11:41:30.223Z,4.80
2018-01-18T11:43:59.075Z,8.10
2018-01-18T11:46:28.135Z,5.63
2018-01-18T11:48:56.561Z,11.20
2018-01-18T11:51:24.927Z,4.67
2018-01-18T11:53:53.424Z,6.57
2018-01-18T11:56:21.788Z,6.20
2018-01-18T11:58:50.150Z,11.57
2018-01-18T12:01:18.514Z,6.37
2018-01-18T12:03:46.885Z,5.00
2018-01-18T12:06:15.264Z,5.23
2018-01-18T12:08:44.400Z,7.10
2018-01-18T12:11:12.762Z,6.00
2018-01-18T12:13:41.147Z,5.00
2018-01-18T12:16:09.520Z,8.90
2018-01-18T12:18:37.907Z,3.73
2018-01-18T12:21:06.261Z,3.90
2018-01-18T12:23:34.616Z,3.00
2018-01-18T12:26:03.148Z,3.23
2018-01-18T12:28:31.559Z,2.37
2018-01-18T12:31:00.345Z,2.70
2018-01-18T12:33:29.093Z,2.47
2018-01-18T12:35:57.465Z,4.70
2018-01-18T12:38:25.828Z,1.30
2018-01-18T12:40:54.249Z,1.30
2018-01-18T12:43:22.727Z,2.97
2018-01-18T12:45:51.116Z,4.80
2018-01-18T12:48:19.477Z,1.17
2018-01-18T12:50:47.850Z,1.77
2018-01-18T12:53:16.213Z,1.33
2018-01-18T12:55:44.612Z,2.80
2018-01-18T12:58:13.001Z,1.53
2018-01-18T13:00:41.369Z,1.27
2018-01-18T13:03:09.748Z,4.93
2018-01-18T13:05:38.185Z,1.73
2018-01-18T13:08:06.574Z,3.03
2018-01-18T13:10:34.995Z,4.87
2018-01-18T13:13:03.379Z,1.93
2018-01-18T13:15:31.752Z,2.23
2018-01-18T13:18:00.111Z,1.77
2018-01-18T13:20:28.493Z,3.87
2018-01-18T13:22:56.845Z,1.33
2018-01-18T13:25:25.273Z,1.80
2018-01-18T13:27:53.637Z,1.97
2018-01-18T13:30:22.056Z,1.80
2018-01-18T13:32:50.828Z,4.30
2018-01-18T13:35:19.281Z,2.60
2018-01-18T13:37:47.653Z,2.17
2018-01-18T13:40:16.028Z,2.00
2018-01-18T13:42:44.428Z,3.30
2018-01-18T13:45:12.803Z,1.10
2018-01-18T13:47:41.189Z,3.23
2018-01-18T13:50:09.547Z,1.10
2018-01-18T13:52:37.924Z,3.30
2018-01-18T13:55:06.320Z,2.33
2018-01-18T13:57:34.702Z,2.13
2018-01-18T14:00:03.060Z,2.73
2018-01-18T14:02:31.417Z,5.13
2018-01-18T14:04:59.798Z,2.87
2018-01-18T14:07:28.220Z,5.80
2018-01-18T14:09:56.684Z,4.93
2018-01-18T14:12:25.068Z,3.00
2018-01-18T14:14:53.439Z,4.83
2018-01-18T14:17:21.795Z,3.70
2018-01-18T14:19:50.155Z,2.60
2018-01-18T14:22:18.960Z,4.70
2018-01-18T14:24:47.324Z,2.50
2018-01-18T14:27:16.072Z,3.33
2018-01-18T14:29:44.433Z,7.30
2018-01-18T14:32:12.813Z,5.10
2018-01-18T14:34:41.187Z,1.97
2018-01-18T14:37:09.585Z,4.20
2018-01-18T14:39:37.944Z,1.50
2018-01-18T14:42:06.300Z,8.90
2018-01-18T14:44:34.671Z,2.13
2018-01-18T14:47:03.106Z,3.33
2018-01-18T14:49:31.485Z,1.93
2018-01-18T14:51:59.837Z,1.03
2018-01-18T14:54:28.233Z,7.00
2018-01-18T14:56:56.615Z,3.43
2018-01-18T14:59:25.932Z,1.00
2018-01-18T15:01:54.284Z,2.30
2018-01-18T15:04:22.662Z,5.23
2018-01-18T15:06:51.020Z,2.43
2018-01-18T15:09:19.436Z,1.43
2018-01-18T15:11:47.803Z,1.27
2018-01-18T15:14:16.145Z,3.90
2018-01-18T15:16:44.583Z,3.33
2018-01-18T15:19:12.944Z,3.27
2018-01-18T15:21:41.299Z,2.13
2018-01-18T15:24:09.683Z,3.43
2018-01-18T15:26:38.082Z,3.33
2018-01-18T15:29:06.460Z,2.40
2018-01-18T15:31:34.908Z,4.83
2018-01-18T15:34:03.268Z,1.80
2018-01-18T15:36:31.641Z,11.17
2018-01-18T15:39:00.403Z,1.90
2018-01-18T15:41:28.755Z,1.97
2018-01-18T15:43:57.124Z,1.77
2018-01-18T15:46:25.476Z,1.70
2018-01-18T15:48:53.848Z,1.47
2018-01-18T15:51:22.286Z,1.80
2018-01-18T15:53:50.666Z,1.53
2018-01-18T15:56:19.025Z,2.20
2018-01-18T15:58:47.405Z,1.77
2018-01-18T16:01:15.782Z,2.30
2018-01-18T16:03:44.128Z,1.60
2018-01-18T16:06:12.480Z,1.13
2018-01-18T16:08:41.332Z,1.53
2018-01-18T16:11:09.709Z,2.50
2018-01-18T16:13:38.090Z,2.40
2018-01-18T16:16:06.448Z,1.30
2018-01-18T16:18:34.804Z,2.20
2018-01-18T16:21:03.166Z,2.57
2018-01-18T16:23:31.635Z,2.10
2018-01-18T16:26:00.091Z,2.13
2018-01-18T16:28:28.512Z,2.50
2018-01-18T16:30:57.600Z,3.00
2018-01-18T16:33:26.376Z,2.20
2018-01-18T16:35:54.850Z,1.63
2018-01-18T16:38:23.291Z,1.90
2018-01-18T16:40:51.664Z,3.23
2018-01-18T16:43:20.019Z,2.20
2018-01-18T16:45:56.460Z,2.80
2018-01-18T16:48:24.845Z,2.10
2018-01-18T16:50:53.617Z,2.60
2018-01-18T16:53:21.984Z,2.23
2018-01-18T16:55:50.354Z,1.50
2018-01-18T16:58:18.802Z,1.80
2018-01-18T17:00:47.216Z,2.50
2018-01-18T17:03:15.576Z,1.80
2018-01-18T17:05:43.931Z,1.10
2018-01-18T17:08:12.365Z,1.57
2018-01-18T17:10:40.738Z,1.53
2018-01-18T17:13:09.223Z,10.30
2018-01-18T17:15:37.601Z,1.03
2018-01-18T17:18:05.978Z,0.70
2018-01-18T17:20:34.360Z,0.70
2018-01-18T17:23:02.739Z,0.63
2018-01-18T17:25:31.120Z,0.63
2018-01-18T17:27:59.490Z,0.70
2018-01-18T17:30:27.840Z,0.90
2018-01-18T17:32:56.199Z,2.03
2018-01-18T17:35:24.576Z,1.23
2018-01-18T17:37:52.956Z,0.97
2018-01-18T17:40:21.319Z,1.40
2018-01-18T17:42:50.179Z,1.40
2018-01-18T17:45:18.658Z,1.30
2018-01-18T17:47:47.024Z,2.00
2018-01-18T17:50:15.425Z,2.03
2018-01-18T17:52:43.797Z,2.10
2018-01-18T17:55:38.010Z,2.17
2018-01-18T17:58:06.752Z,2.57
2018-01-18T18:00:35.111Z,2.63
2018-01-18T18:03:03.468Z,2.43
2018-01-18T18:05:31.836Z,2.90
2018-01-18T18:08:00.220Z,2.83
2018-01-18T18:10:28.577Z,2.90
2018-01-18T18:12:56.927Z,3.33
2018-01-18T18:15:26.236Z,3.20
2018-01-18T18:17:54.710Z,3.20
2018-01-18T18:20:23.163Z,3.07
2018-01-18T18:22:51.605Z,3.90
2018-01-18T18:25:20.356Z,3.70
2018-01-18T18:27:48.735Z,3.63
2018-01-18T18:30:17.092Z,3.60
2018-01-18T18:32:45.494Z,4.17
2018-01-18T18:35:13.844Z,4.60
2018-01-18T18:37:42.188Z,4.93
2018-01-18T18:40:10.968Z,5.27
2018-01-18T18:42:39.336Z,5.60
2018-01-18T18:45:07.715Z,5.77
2018-01-18T18:47:36.129Z,5.50
2018-01-18T18:50:04.888Z,6.40
2018-01-18T18:52:33.252Z,5.43
2018-01-18T18:55:01.621Z,6.13
2018-01-18T18:57:30.116Z,5.20
2018-01-18T18:59:58.476Z,5.10
2018-01-18T19:02:26.844Z,5.77
2018-01-18T19:04:55.252Z,4.87
2018-01-18T19:07:23.600Z,4.67
2018-01-18T19:09:52.042Z,4.37
2018-01-18T19:12:20.400Z,3.37
2018-01-18T19:14:49.000Z,4.60
2018-01-18T19:17:17.849Z,3.50
2018-01-18T19:19:46.350Z,3.80
2018-01-18T19:22:14.729Z,4.30
2018-01-18T19:24:43.096Z,3.43
2018-01-18T19:27:11.996Z,4.00
2018-01-18T19:29:40.355Z,3.63
2018-01-18T19:32:08.699Z,3.90
2018-01-18T19:34:37.077Z,12.13
2018-01-18T19:37:05.447Z,5.33
2018-01-18T19:39:33.807Z,2.87
2018-01-18T19:42:02.261Z,3.90
2018-01-18T19:44:30.655Z,3.40
2018-01-18T19:46:59.057Z,3.93
2018-01-18T19:49:28.513Z,3.37
2018-01-18T19:51:56.901Z,3.23
2018-01-18T19:54:25.263Z,3.13
2018-01-18T19:56:55.337Z,2.37
2018-01-18T19:59:24.106Z,2.47
2018-01-18T20:01:52.468Z,2.50
2018-01-18T20:04:20.844Z,2.37
2018-01-18T20:06:49.207Z,2.67
2018-01-18T20:09:17.760Z,2.77
2018-01-18T20:11:46.183Z,2.50
2018-01-18T20:14:14.573Z,2.53
2018-01-18T20:16:42.937Z,2.60
2018-01-18T20:19:11.289Z,3.30
2018-01-18T20:21:39.648Z,2.40
2018-01-18T20:24:08.081Z,2.00
2018-01-18T20:26:36.532Z,2.37
2018-01-18T20:29:05.036Z,2.50
2018-01-18T20:31:33.417Z,2.20
2018-01-18T20:34:01.800Z,2.27
2018-01-18T20:36:30.276Z,2.33
2018-01-18T20:38:58.626Z,3.00
2018-01-18T20:41:26.970Z,1.90
2018-01-18T20:43:55.318Z,3.57
2018-01-18T20:46:23.678Z,2.50
2018-01-18T20:48:52.035Z,3.10
2018-01-18T20:51:20.453Z,3.00
2018-01-18T20:53:48.864Z,2.93
2018-01-18T20:56:17.718Z,3.37
2018-01-18T20:58:46.083Z,3.50
2018-01-18T21:01:14.461Z,4.87
2018-01-18T21:03:42.838Z,4.40
2018-01-18T21:06:11.417Z,3.13
2018-01-18T21:08:39.803Z,3.07
2018-01-18T21:11:08.152Z,4.10
2018-01-18T21:13:36.577Z,3.33
2018-01-18T21:16:04.926Z,3.67
2018-01-18T21:18:33.336Z,5.73
2018-01-18T21:21:01.705Z,3.50
2018-01-18T21:23:30.057Z,3.13
2018-01-18T21:25:58.476Z,3.10
2018-01-18T21:28:26.825Z,3.07
2018-01-18T21:30:55.228Z,2.37
2018-01-18T21:33:23.585Z,2.80
2018-01-18T21:35:51.936Z,2.23
2018-01-18T21:38:20.304Z,8.90
2018-01-18T21:40:49.057Z,3.53
2018-01-18T21:43:17.492Z,2.67
2018-01-18T21:45:45.237Z,2.87
2018-01-18T21:48:13.975Z,2.87
2018-01-18T21:50:42.352Z,2.57
2018-01-18T21:53:10.695Z,2.07
2018-01-18T21:55:39.041Z,4.13
2018-01-18T21:58:07.512Z,3.60
2018-01-18T22:00:35.855Z,2.57
2018-01-18T22:03:04.257Z,4.83
2018-01-18T22:05:32.632Z,2.43
2018-01-18T22:08:00.973Z,2.97
2018-01-18T22:10:29.344Z,2.53
2018-01-18T22:12:57.784Z,2.90
2018-01-18T22:15:26.251Z,2.93
2018-01-18T22:17:54.641Z,2.20
2018-01-18T22:20:23.092Z,2.90
2018-01-18T22:22:51.458Z,3.17
2018-01-18T22:25:19.820Z,3.20
2018-01-18T22:27:48.322Z,4.10
2018-01-18T22:30:16.731Z,5.43
2018-01-18T22:32:45.092Z,4.40
2018-01-18T22:35:13.453Z,5.27
2018-01-18T22:37:41.939Z,4.37
2018-01-18T22:40:10.319Z,4.37
2018-01-18T22:42:38.665Z,5.87
2018-01-18T22:45:07.409Z,4.57
2018-01-18T22:47:35.814Z,5.23
2018-01-18T22:50:04.188Z,5.70
2018-01-18T22:52:32.638Z,4.23
2018-01-18T22:55:00.988Z,5.40
2018-01-18T22:57:29.515Z,5.13
2018-01-18T22:59:57.865Z,4.80
2018-01-18T23:02:26.226Z,5.80
2018-01-18T23:04:54.582Z,5.20
2018-01-18T23:07:23.339Z,6.37
2018-01-18T23:09:51.719Z,4.77
2018-01-18T23:12:20.200Z,5.23
2018-01-18T23:14:55.197Z,5.90
2018-01-18T23:17:23.571Z,6.47
2018-01-18T23:19:51.922Z,5.57
2018-01-18T23:22:20.744Z,6.63
2018-01-18T23:24:49.116Z,5.60
2018-01-18T23:27:17.499Z,5.63
2018-01-18T23:29:45.877Z,6.93
2018-01-18T23:32:14.353Z,5.43
2018-01-18T23:34:42.709Z,6.37
2018-01-18T23:37:11.468Z,6.40
2018-01-18T23:39:39.961Z,6.60
2018-01-18T23:42:08.327Z,4.80
2018-01-18T23:44:36.691Z,5.47
2018-01-18T23:47:05.594Z,10.80
2018-01-18T23:49:33.948Z,6.77
2018-01-18T23:52:02.308Z,5.50
2018-01-18T23:54:30.742Z,5.90
2018-01-18T23:56:59.089Z,5.40
2018-01-18T23:59:27.460Z,5.67
